Meteo Giornale » Osservazioni meteo Italia » Verona-Villafranca

ore: 13:50 - Osservazioni Meteo Verona-Villafranca
Lat. 45° 23' N Lon. 10° 52' E Alt. 67 metri s.l.m.

sereno Europe/Rome

23 °C

Sereno

Temp. 24 Ore

8 °C

23 °C

Sud-Est

7.4 Km/h

Dew point 7 °C

Umidità 35 %

Visibilità  10 Km

Il sole sorge alle ore 06:57

Il sole tramonta alle ore 19:43

Data e Ora Cielo e Fenomeni T °C DP °C Um. % Pres. hPa Vis. km Vento km/h
Oggi h: 13:50 sereno Sereno 23 7 35 1025 10 SE 7.4
Oggi h: 13:20 sereno Sereno 22 7 37 1025 10 E/SE 9.3
Oggi h: 12:50 sereno Sereno 22 6 35 1026 10 SE 9.3
Oggi h: 12:20 sereno Sereno 21 6 37 1026 10 E/SE 7.4
Oggi h: 11:50 sereno Sereno 20 5 37 1026 10 N 5.5
Oggi h: 11:20 sereno Sereno 19 6 42 1026 10 N 5.5
Oggi h: 10:50 sereno Sereno 19 5 39 1026 10 N 3.7
Oggi h: 10:20 sereno Sereno 18 5 42 1026 10 N 1.8
Oggi h: 09:50 sereno Sereno 16 6 51 1026 10 N 1.8
Oggi h: 09:20 sereno Sereno 15 5 51 1025 10 N 1.8
Oggi h: 08:50 sereno Sereno 13 7 66 1025 10 N 1.8
Oggi h: 08:20 sereno Sereno 11 6 71 1025 10 N 3.7
Oggi h: 07:50 sereno Sereno 8 5 81 1025 10 N 5.5
Oggi h: 07:20 sereno Sereno 8 5 81 1024 10 N 1.8
Oggi h: 06:50 sereno Sereno 8 4 75 0 10 N 7.4
Oggi h: 06:20 sereno Sereno 9 5 75 1024 10 N 3.7
Oggi h: 05:50 sereno Sereno 8 4 75 1024 10 N 168.4
Oggi h: 05:20 sereno Sereno 8 6 87 1024 10 N 168.4
Oggi h: 04:50 sereno Sereno 9 4 70 1024 10 N 168.4
Oggi h: 04:20 sereno Sereno 9 4 70 1024 10 N 168.4
Oggi h: 03:50 sereno Sereno 10 5 71 1024 10 N 168.4
Oggi h: 03:20 sereno Sereno 10 5 71 1024 10 N/NO 9.3
Oggi h: 02:50 sereno Sereno 12 5 62 1024 10 O/NO 9.3
Oggi h: 02:20 sereno Sereno 12 5 62 1024 10 O/NO 9.3
Oggi h: 01:50 sereno Sereno 12 5 62 1024 10 N 5.5
Oggi h: 01:20 sereno Sereno 11 5 66 1024 10 N 5.5
Oggi h: 00:50 sereno Sereno 12 6 66 1024 10 O/NO 9.3
Oggi h: 00:20 sereno Sereno 10 6 76 1024 10 N 3.7
Ieri h: 23:50 sereno Sereno 11 6 71 1023 10 N 5.5
Ieri h: 23:20 sereno Sereno 12 6 66 1023 10 N 5.5
Ieri h: 22:50 sereno Sereno 12 6 66 1023 10 N 5.5
Ieri h: 22:20 sereno Sereno 14 6 58 1023 10 N/NO 7.4
Ieri h: 21:50 sereno Sereno 14 5 54 1023 10 N 3.7
Ieri h: 21:20 sereno Sereno 14 6 58 1023 10 N/NO 7.4
Ieri h: 20:50 sereno Sereno 15 5 51 1022 10 N 3.7
Ieri h: 20:20 sereno Sereno 18 5 42 1022 10 O/SO 7.4
Ieri h: 19:50 sereno Sereno 19 5 39 1022 10 O/SO 7.4
Ieri h: 19:20 sereno Sereno 20 6 39 1022 10 O/SO 7.4
Ieri h: 18:20 sereno Sereno 21 6 37 1022 10 S/SO 11.1
Ieri h: 17:50 sereno Sereno 22 4 30 1022 10 SO 11.1
Ieri h: 17:20 sereno Sereno 23 3 26 1022 10 S/SO 11.1
Ieri h: 16:50 sereno Sereno 23 4 28 1022 10 SO 9.3
Ieri h: 16:20 sereno Sereno 23 6 33 1022 10 S/SO 11.1
Ieri h: 15:50 sereno Sereno 23 7 35 1023 10 SO 7.4
Ieri h: 15:20 sereno Sereno 22 4 30 1023 10 N 1.8
Ieri h: 14:50 sereno Sereno 23 5 31 1023 10 N 5.5